Terminal Aerodrome Forecast
Issued by NWS

Current Version | Previous Version | Graphics & Text | Print | Product List | Glossary On
Versions: 1 2 3 4 5 6 7 8 9 10 11 12 13 14 15 16 17 18 19 20 21 22
000
FTUS41 KPBZ 220400 AAB
TAFMGW
TAF AMD
KMGW 220428Z 2204/2224 20005KT 2SM -RASN OVC013
     FM220600 28005KT P6SM OVC009
     FM221600 26005KT P6SM OVC015=

USA.gov is the U.S. government's official web portal to all federal, state and local government web resources and services.